createdAt,value
2023-05-05T00:01:48.898Z,101237.84
2023-05-05T00:04:17.605Z,101231.84
2023-05-05T00:06:45.450Z,101242.34
2023-05-05T00:09:13.295Z,101231.69
2023-05-05T00:11:41.012Z,101237.16
2023-05-05T00:14:08.691Z,101229.16
2023-05-05T00:16:36.503Z,101230.16
2023-05-05T00:19:05.746Z,101228.47
2023-05-05T00:21:33.428Z,101225.94
2023-05-05T00:24:01.144Z,101224.13
2023-05-05T00:26:28.820Z,101224.81
2023-05-05T00:28:56.508Z,101214.16
2023-05-05T00:31:24.324Z,101215.13
2023-05-05T00:33:52.036Z,101211.09
2023-05-05T00:36:21.075Z,101211.41
2023-05-05T00:38:48.786Z,101210.53
2023-05-05T00:41:16.416Z,101211.41
2023-05-05T00:43:44.047Z,101211.41
2023-05-05T00:46:19.911Z,101208.03
2023-05-05T00:48:47.592Z,101211.00
2023-05-05T00:51:16.928Z,101216.94
2023-05-05T00:53:46.255Z,101211.28
2023-05-05T00:56:14.353Z,101213.97
2023-05-05T00:58:42.788Z,101201.63
2023-05-05T01:01:12.020Z,101204.44
2023-05-05T01:03:40.616Z,101203.75
2023-05-05T01:06:17.187Z,101210.94
2023-05-05T01:08:56.150Z,101213.88
2023-05-05T01:11:28.121Z,101214.88
2023-05-05T01:14:01.931Z,101216.31
2023-05-05T01:16:31.894Z,101211.44
2023-05-05T01:19:02.256Z,101209.91
2023-05-05T01:21:33.286Z,101200.44
2023-05-05T01:24:34.454Z,101199.28
2023-05-05T01:27:21.149Z,101195.09
2023-05-05T01:30:02.076Z,101201.00
2023-05-05T01:32:33.296Z,101186.84
2023-05-05T01:35:02.778Z,101179.16
2023-05-05T01:37:31.792Z,101179.16
2023-05-05T01:40:01.650Z,101182.50
2023-05-05T01:42:30.559Z,101182.50
2023-05-05T01:44:58.627Z,101182.66
2023-05-05T01:47:27.481Z,101185.88
2023-05-05T01:49:56.674Z,101186.69
2023-05-05T01:52:25.154Z,101190.91
2023-05-05T01:54:53.824Z,101190.91
2023-05-05T01:57:22.432Z,101193.72
2023-05-05T01:59:51.496Z,101195.53
2023-05-05T02:02:20.121Z,101196.53
2023-05-05T02:04:49.188Z,101184.66
2023-05-05T02:07:18.373Z,101190.66
2023-05-05T02:09:46.330Z,101185.59
2023-05-05T02:12:14.338Z,101197.41
2023-05-05T02:14:43.488Z,101208.06
2023-05-05T02:17:12.282Z,101208.06
2023-05-05T02:19:41.567Z,101202.75
2023-05-05T02:22:09.373Z,101205.41
2023-05-05T02:24:38.514Z,101199.41
2023-05-05T02:27:07.605Z,101199.25
2023-05-05T02:29:36.846Z,101212.72
2023-05-05T02:32:07.217Z,101222.38
2023-05-05T02:34:37.129Z,101220.03
2023-05-05T02:37:08.195Z,101212.03
2023-05-05T02:39:43.498Z,101208.38
2023-05-05T02:42:12.088Z,101214.41
2023-05-05T02:44:42.592Z,101219.03
2023-05-05T02:47:10.287Z,101229.69
2023-05-05T02:49:38.030Z,101229.97
2023-05-05T02:52:05.732Z,101223.81
2023-05-05T02:54:33.967Z,101229.13
2023-05-05T02:57:03.097Z,101218.78
2023-05-05T02:59:34.901Z,101220.88
2023-05-05T03:02:11.406Z,101227.91
2023-05-05T03:04:40.802Z,101221.88
2023-05-05T03:07:12.126Z,101218.22
2023-05-05T03:09:41.655Z,101210.09
2023-05-05T03:12:12.032Z,101205.63
2023-05-05T03:14:42.236Z,101211.78
2023-05-05T03:17:10.987Z,101212.63
2023-05-05T03:19:39.996Z,101214.59
2023-05-05T03:22:07.731Z,101212.88
2023-05-05T03:24:35.483Z,101210.22
2023-05-05T03:27:03.230Z,101205.06
2023-05-05T03:29:32.317Z,101214.84
2023-05-05T03:32:00.975Z,101208.25
2023-05-05T03:34:28.646Z,101198.16
2023-05-05T03:36:56.362Z,101202.66
2023-05-05T03:39:24.069Z,101209.09
2023-05-05T03:41:51.759Z,101204.75
2023-05-05T03:44:19.453Z,101204.75
2023-05-05T03:46:48.470Z,101207.31
2023-05-05T03:49:16.233Z,101211.53
2023-05-05T03:51:44.196Z,101217.13
2023-05-05T03:54:11.843Z,101219.09
2023-05-05T03:56:39.449Z,101217.44
2023-05-05T03:59:08.711Z,101216.88
2023-05-05T04:01:36.445Z,101215.34
2023-05-05T04:04:05.804Z,101214.34
2023-05-05T04:06:33.501Z,101221.81
2023-05-05T04:09:01.197Z,101228.97
2023-05-05T04:11:28.889Z,101229.78
2023-05-05T04:13:56.584Z,101238.78
2023-05-05T04:16:24.298Z,101245.78
2023-05-05T04:18:52.010Z,101246.88
2023-05-05T04:21:21.048Z,101257.53
2023-05-05T04:23:49.098Z,101262.00
2023-05-05T04:26:16.802Z,101267.50
2023-05-05T04:28:44.541Z,101274.50
2023-05-05T04:31:12.265Z,101276.31
2023-05-05T04:33:39.974Z,101282.91
2023-05-05T04:36:08.401Z,101288.94
2023-05-05T04:38:37.681Z,101272.13
2023-05-05T04:41:07.254Z,101276.47
2023-05-05T04:43:34.914Z,101281.63
2023-05-05T04:46:02.590Z,101286.13
2023-05-05T04:48:30.342Z,101284.31
2023-05-05T04:50:58.011Z,101297.47
2023-05-05T04:53:25.890Z,101296.63
2023-05-05T04:55:54.984Z,101310.25
2023-05-05T04:58:22.583Z,101308.56
2023-05-05T05:00:50.247Z,101310.50
2023-05-05T05:03:17.969Z,101313.16
2023-05-05T05:05:45.644Z,101317.66
2023-05-05T05:08:13.347Z,101316.81
2023-05-05T05:10:41.430Z,101325.78
2023-05-05T05:13:12.540Z,101323.97
2023-05-05T05:15:40.768Z,101328.44
2023-05-05T05:18:08.452Z,101329.56
2023-05-05T05:20:36.080Z,101321.59
2023-05-05T05:23:04.498Z,101325.09
2023-05-05T05:25:32.189Z,101328.75
2023-05-05T05:28:09.643Z,101341.06
2023-05-05T05:30:39.886Z,101341.06
2023-05-05T05:33:07.618Z,101349.47
2023-05-05T05:35:35.352Z,101345.00
2023-05-05T05:38:03.059Z,101351.84
2023-05-05T05:40:31.524Z,101358.59
2023-05-05T05:42:59.375Z,101352.00
2023-05-05T05:45:27.095Z,101358.72
2023-05-05T05:47:56.317Z,101354.09
2023-05-05T05:50:24.532Z,101353.94
2023-05-05T05:52:52.191Z,101359.13
2023-05-05T05:55:19.872Z,101362.22
2023-05-05T05:57:47.603Z,101369.91
2023-05-05T06:00:16.868Z,101364.47
2023-05-05T06:02:44.669Z,101359.00
2023-05-05T06:05:13.864Z,101357.84
2023-05-05T06:07:41.564Z,101358.69
2023-05-05T06:10:25.705Z,101367.41
2023-05-05T06:12:54.831Z,101368.97
2023-05-05T06:15:22.536Z,101375.81
2023-05-05T06:17:50.158Z,101374.56
2023-05-05T06:20:19.556Z,101367.25
2023-05-05T06:22:47.367Z,101377.47
2023-05-05T06:25:15.068Z,101367.38
2023-05-05T06:27:42.783Z,101364.41
2023-05-05T06:30:11.530Z,101364.97
2023-05-05T06:32:39.250Z,101360.19
2023-05-05T06:35:08.108Z,101362.00
2023-05-05T06:37:37.180Z,101372.94
2023-05-05T06:40:05.696Z,101367.63
2023-05-05T06:42:33.508Z,101369.28
2023-05-05T06:45:01.480Z,101367.88
2023-05-05T06:47:29.170Z,101367.31
2023-05-05T06:49:56.849Z,101378.66
2023-05-05T06:52:24.564Z,101381.16
2023-05-05T06:54:53.608Z,101382.16
2023-05-05T06:57:21.372Z,101379.34
2023-05-05T06:59:49.057Z,101386.06
2023-05-05T07:02:17.121Z,101386.63
2023-05-05T07:04:45.173Z,101388.28
2023-05-05T07:07:12.907Z,101392.50
2023-05-05T07:09:41.228Z,101402.88
2023-05-05T07:12:10.426Z,101400.78
2023-05-05T07:14:38.081Z,101405.13
2023-05-05T07:17:06.355Z,101397.22
2023-05-05T07:19:34.062Z,101402.13
2023-05-05T07:22:01.741Z,101396.50
2023-05-05T07:24:29.438Z,101404.91
2023-05-05T07:26:57.420Z,101408.00
2023-05-05T07:29:26.742Z,101408.66
2023-05-05T07:31:54.480Z,101417.09
2023-05-05T07:34:22.230Z,101411.72
2023-05-05T07:36:49.948Z,101413.66
2023-05-05T07:39:19.329Z,101419.41
2023-05-05T07:41:47.200Z,101412.06
2023-05-05T07:44:14.876Z,101417.50
2023-05-05T07:46:43.890Z,101416.34
2023-05-05T07:49:11.529Z,101421.09
2023-05-05T07:51:39.166Z,101427.13
2023-05-05T07:54:06.977Z,101418.16
2023-05-05T07:56:34.755Z,101428.50
2023-05-05T07:59:02.405Z,101423.00
2023-05-05T08:01:30.169Z,101426.38
2023-05-05T08:03:59.490Z,101430.59
2023-05-05T08:06:27.800Z,101429.44
2023-05-05T08:08:55.601Z,101428.28
2023-05-05T08:11:23.338Z,101434.19
2023-05-05T08:13:51.051Z,101433.88
2023-05-05T08:16:19.098Z,101437.78
2023-05-05T08:18:46.874Z,101439.69
2023-05-05T08:21:16.030Z,101432.91
2023-05-05T08:23:43.741Z,101435.25
2023-05-05T08:26:11.578Z,101436.75
2023-05-05T08:28:39.327Z,101435.47
2023-05-05T08:31:07.764Z,101429.97
2023-05-05T08:33:35.546Z,101433.59
2023-05-05T08:36:03.205Z,101434.88
2023-05-05T08:38:32.262Z,101434.16
2023-05-05T08:41:00.020Z,101431.38
2023-05-05T08:43:27.707Z,101432.91
2023-05-05T08:45:56.307Z,101430.91
2023-05-05T08:48:24.530Z,101435.66
2023-05-05T08:50:57.998Z,101429.47
2023-05-05T08:53:40.088Z,101431.59
2023-05-05T08:56:08.790Z,101437.47
2023-05-05T08:58:38.126Z,101430.59
2023-05-05T09:01:07.269Z,101431.66
2023-05-05T09:03:35.649Z,101428.69
2023-05-05T09:06:03.651Z,101431.84
2023-05-05T09:08:32.622Z,101433.03
2023-05-05T09:11:01.997Z,101434.69
2023-05-05T09:13:31.228Z,101443.94
2023-05-05T09:15:59.137Z,101437.41
2023-05-05T09:18:27.196Z,101435.75
2023-05-05T09:20:55.444Z,101439.09
2023-05-05T09:25:01.029Z,101439.97
2023-05-05T09:27:28.827Z,101435.16
2023-05-05T09:29:56.711Z,101435.84
2023-05-05T09:32:24.461Z,101446.38
2023-05-05T09:34:59.153Z,101443.53
2023-05-05T09:37:30.957Z,101439.75
2023-05-05T09:40:01.588Z,101441.25
2023-05-05T09:42:29.274Z,101441.09
2023-05-05T09:44:59.787Z,101443.97
2023-05-05T09:47:35.549Z,101439.16
2023-05-05T09:50:04.179Z,101443.84
2023-05-05T09:52:32.092Z,101440.69
2023-05-05T09:55:01.145Z,101440.06
2023-05-05T09:57:30.458Z,101429.41
2023-05-05T09:59:58.913Z,101431.25
2023-05-05T10:02:34.046Z,101433.47
2023-05-05T10:05:06.505Z,101425.59
2023-05-05T10:07:34.724Z,101424.75
2023-05-05T10:10:04.403Z,101426.50
2023-05-05T10:12:32.790Z,101427.16
2023-05-05T10:15:02.678Z,101429.66
2023-05-05T10:17:32.780Z,101429.28
2023-05-05T10:20:01.985Z,101419.06
2023-05-05T10:22:30.702Z,101418.41
2023-05-05T10:24:59.343Z,101415.38
2023-05-05T10:27:29.858Z,101412.03
2023-05-05T10:30:03.772Z,101401.47
2023-05-05T10:32:56.962Z,101404.00
2023-05-05T10:35:23.154Z,101403.47
2023-05-05T10:37:51.107Z,101404.00
2023-05-05T10:40:18.846Z,101413.38
2023-05-05T10:42:50.047Z,101400.63
2023-05-05T10:45:17.788Z,101384.94
2023-05-05T10:47:45.609Z,101395.34
2023-05-05T10:50:17.528Z,101399.84
2023-05-05T10:52:49.131Z,101400.34
2023-05-05T10:55:18.510Z,101395.16
2023-05-05T10:57:47.803Z,101396.66
2023-05-05T11:00:50.040Z,101387.63
2023-05-05T11:03:21.960Z,101388.63
2023-05-05T11:06:14.715Z,101386.97
2023-05-05T11:08:43.953Z,101385.59
2023-05-05T11:11:12.584Z,101378.91
2023-05-05T11:13:41.951Z,101377.56
2023-05-05T11:16:44.614Z,101375.38
2023-05-05T11:19:48.957Z,101382.72
2023-05-05T11:22:17.577Z,101396.28
2023-05-05T11:24:45.698Z,101410.97
2023-05-05T11:27:13.493Z,101453.66
2023-05-05T11:30:08.209Z,101402.56
2023-05-05T11:32:36.169Z,101412.56
2023-05-05T11:35:04.233Z,101398.22
2023-05-05T11:37:31.894Z,101396.63
2023-05-05T11:40:07.100Z,101399.06
2023-05-05T11:42:35.099Z,101390.38
2023-05-05T11:45:03.392Z,101379.97
2023-05-05T11:47:35.566Z,101387.00
2023-05-05T11:50:21.698Z,101372.97
2023-05-05T11:52:49.482Z,101372.63
2023-05-05T11:55:22.055Z,101358.44
2023-05-05T11:57:49.862Z,101358.00
2023-05-05T12:00:18.346Z,101358.38
2023-05-05T12:02:47.675Z,101356.25
2023-05-05T12:05:21.195Z,101360.66
2023-05-05T12:07:49.041Z,101363.69
2023-05-05T12:10:23.823Z,101367.59
2023-05-05T12:12:53.178Z,101364.75
2023-05-05T12:15:29.663Z,101365.25
2023-05-05T12:18:01.454Z,101367.81
2023-05-05T12:20:30.877Z,101362.97
2023-05-05T12:23:01.517Z,101351.94
2023-05-05T12:25:36.192Z,101360.66
2023-05-05T12:28:03.868Z,101351.31
2023-05-05T12:30:31.590Z,101368.41
2023-05-05T12:33:04.188Z,101355.72
2023-05-05T12:35:32.062Z,101351.34
2023-05-05T12:37:59.918Z,101360.75
2023-05-05T12:40:47.975Z,101357.91
2023-05-05T12:43:26.582Z,101362.09
2023-05-05T12:46:05.388Z,101365.78
2023-05-05T12:48:34.920Z,101379.47
2023-05-05T12:51:15.228Z,101388.63
2023-05-05T12:53:42.910Z,101432.91
2023-05-05T12:56:36.054Z,101448.09
2023-05-05T12:59:04.988Z,101465.63
2023-05-05T13:01:33.055Z,101465.97
2023-05-05T13:04:15.250Z,101505.91
2023-05-05T13:06:44.280Z,101516.22
2023-05-05T13:09:24.119Z,101524.16
2023-05-05T13:11:51.848Z,101514.94
2023-05-05T13:14:19.673Z,101530.06
2023-05-05T13:16:47.372Z,101552.03
2023-05-05T13:19:16.460Z,101572.63
2023-05-05T13:21:44.216Z,101567.00
2023-05-05T13:24:22.930Z,101556.88
2023-05-05T13:26:56.567Z,101543.69
2023-05-05T13:29:28.363Z,101544.63
2023-05-05T13:31:58.279Z,101556.78
2023-05-05T13:34:28.287Z,101566.03
2023-05-05T13:36:56.262Z,101556.22
2023-05-05T13:39:24.013Z,101547.81
2023-05-05T13:41:51.784Z,101543.06
2023-05-05T13:44:19.524Z,101527.09
2023-05-05T13:46:47.334Z,101523.75
2023-05-05T13:49:15.148Z,101514.19
2023-05-05T13:51:45.287Z,101513.63
2023-05-05T13:54:13.231Z,101492.59
2023-05-05T13:56:41.036Z,101497.06
2023-05-05T13:59:09.093Z,101492.34
2023-05-05T14:01:37.309Z,101498.91
2023-05-05T14:04:06.104Z,101501.88
2023-05-05T14:06:34.103Z,101494.88
2023-05-05T14:09:05.894Z,101482.09
2023-05-05T14:11:33.899Z,101478.50
2023-05-05T14:14:01.782Z,101471.22
2023-05-05T14:16:29.642Z,101472.88
2023-05-05T14:18:57.267Z,101472.06
2023-05-05T14:21:24.968Z,101470.81
2023-05-05T14:23:52.687Z,101471.53
2023-05-05T14:26:21.784Z,101472.38
2023-05-05T14:28:50.220Z,101472.50
2023-05-05T14:31:18.526Z,101480.75
2023-05-05T14:33:46.198Z,101483.69
2023-05-05T14:36:14.285Z,101480.59
2023-05-05T14:38:42.936Z,101488.03
2023-05-05T14:41:11.403Z,101492.06
2023-05-05T14:43:40.966Z,101502.88
2023-05-05T14:46:08.709Z,101506.66
2023-05-05T14:48:36.591Z,101503.41
2023-05-05T14:51:04.622Z,101497.13
2023-05-05T14:53:32.368Z,101497.38
2023-05-05T14:56:00.017Z,101501.31
2023-05-05T14:58:27.732Z,101494.28
2023-05-05T15:00:56.961Z,101494.28
2023-05-05T15:03:24.891Z,101497.66
2023-05-05T15:05:52.618Z,101504.91
2023-05-05T15:08:20.388Z,101499.34
2023-05-05T15:10:48.113Z,101493.75
2023-05-05T15:13:16.020Z,101485.59
2023-05-05T15:15:45.074Z,101491.53
2023-05-05T15:18:14.232Z,101484.53
2023-05-05T15:20:41.958Z,101482.03
2023-05-05T15:24:01.438Z,101468.56
2023-05-05T15:26:29.045Z,101473.59
2023-05-05T15:28:56.632Z,101474.19
2023-05-05T15:31:24.324Z,101465.06
2023-05-05T15:33:52.056Z,101466.06
2023-05-05T15:36:22.481Z,101454.72
2023-05-05T15:38:50.387Z,101450.91
2023-05-05T15:41:19.481Z,101458.81
2023-05-05T15:43:47.178Z,101448.16
2023-05-05T15:46:14.821Z,101436.25
2023-05-05T15:48:42.580Z,101428.13
2023-05-05T15:51:12.577Z,101426.41
2023-05-05T15:53:40.322Z,101440.44
2023-05-05T15:56:08.244Z,101432.28
2023-05-05T15:58:37.524Z,101430.44
2023-05-05T16:01:05.329Z,101409.50
2023-05-05T16:03:33.116Z,101412.44
2023-05-05T16:06:00.786Z,101405.84
2023-05-05T16:08:29.090Z,101404.00
2023-05-05T16:10:56.980Z,101411.72
2023-05-05T16:13:24.756Z,101416.63
2023-05-05T16:15:53.841Z,101408.25
2023-05-05T16:18:21.507Z,101405.16
2023-05-05T16:20:49.921Z,101404.75
2023-05-05T16:23:17.796Z,101404.06
2023-05-05T16:25:45.607Z,101403.91
2023-05-05T16:28:13.325Z,101397.63
2023-05-05T16:30:42.768Z,101395.91
2023-05-05T16:33:11.926Z,101386.25
2023-05-05T16:35:39.741Z,101386.66
2023-05-05T16:38:07.485Z,101387.59
2023-05-05T16:40:37.458Z,101387.72
2023-05-05T16:43:05.386Z,101389.78
2023-05-05T16:45:33.060Z,101384.47
2023-05-05T16:48:00.778Z,101384.06
2023-05-05T16:50:29.912Z,101386.28
2023-05-05T16:52:57.869Z,101386.13
2023-05-05T16:55:25.887Z,101377.31
2023-05-05T16:57:53.705Z,101381.78
2023-05-05T17:00:21.693Z,101378.44
2023-05-05T17:02:50.045Z,101386.41
2023-05-05T17:05:18.411Z,101397.75
2023-05-05T17:07:48.285Z,101401.97
2023-05-05T17:10:16.151Z,101400.97
2023-05-05T17:12:43.925Z,101413.03
2023-05-05T17:15:11.962Z,101411.66
2023-05-05T17:17:41.570Z,101414.00
2023-05-05T17:20:12.276Z,101416.97
2023-05-05T17:22:40.351Z,101419.94
2023-05-05T17:25:10.906Z,101421.59
2023-05-05T17:27:39.217Z,101430.22
2023-05-05T17:30:08.255Z,101426.72
2023-05-05T17:32:36.095Z,101429.13
2023-05-05T17:35:03.978Z,101415.25
2023-05-05T17:37:32.260Z,101422.25
2023-05-05T17:39:59.977Z,101416.09
2023-05-05T17:42:32.956Z,101429.28
2023-05-05T17:45:00.800Z,101427.59
2023-05-05T17:47:28.715Z,101432.09
2023-05-05T17:49:57.924Z,101433.91
2023-05-05T17:52:26.136Z,101436.91
2023-05-05T17:54:53.808Z,101435.91
2023-05-05T17:57:22.736Z,101433.25
2023-05-05T17:59:53.615Z,101439.09
2023-05-05T18:02:21.789Z,101437.69
2023-05-05T18:04:49.612Z,101441.72
2023-05-05T18:07:17.306Z,101446.50
2023-05-05T18:09:45.007Z,101442.72
2023-05-05T18:12:12.699Z,101444.09
2023-05-05T18:14:40.470Z,101445.63
2023-05-05T18:17:09.540Z,101447.91
2023-05-05T18:19:38.219Z,101450.25
2023-05-05T18:22:06.369Z,101455.06
2023-05-05T18:24:34.140Z,101455.06
2023-05-05T18:27:01.757Z,101457.16
2023-05-05T18:29:29.481Z,101467.16
2023-05-05T18:31:57.214Z,101469.13
2023-05-05T18:34:26.379Z,101486.69
2023-05-05T18:36:55.094Z,101475.03
2023-05-05T18:39:22.752Z,101469.97
2023-05-05T18:41:50.654Z,101471.94
2023-05-05T18:44:19.463Z,101474.91
2023-05-05T18:46:47.933Z,101476.75
2023-05-05T18:49:16.312Z,101481.22
2023-05-05T18:51:45.370Z,101477.00
2023-05-05T18:54:13.138Z,101478.00
2023-05-05T18:56:40.893Z,101480.97
2023-05-05T18:59:08.599Z,101475.06
2023-05-05T19:01:36.341Z,101475.06
2023-05-05T19:04:05.425Z,101480.69
2023-05-05T19:06:36.275Z,101485.44
2023-05-05T19:09:05.445Z,101489.25
2023-05-05T19:11:33.055Z,101488.81
2023-05-05T19:14:00.678Z,101486.44
2023-05-05T19:16:30.047Z,101484.09
2023-05-05T19:18:58.789Z,101484.22
2023-05-05T19:21:27.461Z,101478.31
2023-05-05T19:23:55.132Z,101485.63
2023-05-05T19:26:25.011Z,101483.53
2023-05-05T19:28:55.186Z,101486.19
2023-05-05T19:31:27.410Z,101490.66
2023-05-05T19:34:05.275Z,101487.44
2023-05-05T19:36:33.377Z,101493.88
2023-05-05T19:39:01.645Z,101490.69
2023-05-05T19:41:30.845Z,101495.28
2023-05-05T19:43:58.644Z,101497.22
2023-05-05T19:46:26.870Z,101494.13
2023-05-05T19:48:54.673Z,101497.78
2023-05-05T19:51:22.339Z,101496.38
2023-05-05T19:53:50.400Z,101493.03
2023-05-05T19:56:18.083Z,101503.94
2023-05-05T19:58:56.496Z,101497.91
2023-05-05T20:01:24.586Z,101505.06
2023-05-05T20:03:54.335Z,101502.78
2023-05-05T20:06:23.871Z,101503.09
2023-05-05T20:08:51.589Z,101501.66
2023-05-05T20:11:21.089Z,101510.91
2023-05-05T20:13:49.246Z,101506.56
2023-05-05T20:16:18.437Z,101511.47
2023-05-05T20:18:46.281Z,101505.84
2023-05-05T20:21:14.015Z,101513.84
2023-05-05T20:23:43.006Z,101502.50
2023-05-05T20:26:11.321Z,101503.31
2023-05-05T20:28:40.829Z,101502.50
2023-05-05T20:31:10.879Z,101507.38
2023-05-05T20:33:40.086Z,101497.44
2023-05-05T20:36:08.168Z,101491.53
2023-05-05T20:38:35.880Z,101490.69
2023-05-05T20:41:03.601Z,101487.34
2023-05-05T20:43:31.290Z,101496.31
2023-05-05T20:45:58.987Z,101499.22
2023-05-05T20:48:26.856Z,101496.16
2023-05-05T20:50:55.940Z,101493.19
2023-05-05T20:53:25.365Z,101502.69
2023-05-05T20:55:53.035Z,101504.81
2023-05-05T20:58:20.971Z,101501.31
2023-05-05T21:00:48.746Z,101497.06
2023-05-05T21:03:16.492Z,101500.84
2023-05-05T21:05:44.707Z,101495.69
2023-05-05T21:08:13.808Z,101499.44
2023-05-05T21:10:41.495Z,101500.41
2023-05-05T21:13:09.247Z,101506.00
2023-05-05T21:15:37.434Z,101514.97
2023-05-05T21:18:05.583Z,101513.28
2023-05-05T21:20:33.283Z,101502.91
2023-05-05T21:23:01.017Z,101505.56
2023-05-05T21:25:30.605Z,101506.53
2023-05-05T21:27:58.301Z,101512.13
2023-05-05T21:30:26.148Z,101520.38
2023-05-05T21:32:53.957Z,101521.63
2023-05-05T21:35:21.859Z,101516.53
2023-05-05T21:37:50.020Z,101506.06
2023-05-05T21:40:17.777Z,101512.34
2023-05-05T21:42:46.841Z,101517.09
2023-05-05T21:45:14.526Z,101513.72
2023-05-05T21:47:42.306Z,101513.72
2023-05-05T21:50:11.036Z,101518.44
2023-05-05T21:52:38.972Z,101523.75
2023-05-05T21:55:07.577Z,101514.09
2023-05-05T21:57:35.259Z,101513.50
2023-05-05T22:00:05.655Z,101515.19
2023-05-05T22:02:34.278Z,101512.78
2023-05-05T22:05:01.998Z,101512.34
2023-05-05T22:07:31.017Z,101514.16
2023-05-05T22:09:59.365Z,101517.91
2023-05-05T22:12:27.028Z,101516.25
2023-05-05T22:14:54.757Z,101519.16
2023-05-05T22:17:23.901Z,101513.13
2023-05-05T22:19:51.787Z,101503.75
2023-05-05T22:22:19.469Z,101509.06
2023-05-05T22:24:47.090Z,101511.81
2023-05-05T22:27:14.807Z,101509.28
2023-05-05T22:29:42.499Z,101513.91
2023-05-05T22:32:10.154Z,101514.88
2023-05-05T22:34:39.264Z,101510.66
2023-05-05T22:37:07.408Z,101503.66
2023-05-05T22:39:35.115Z,101509.09
2023-05-05T22:42:03.702Z,101501.53
2023-05-05T22:44:31.378Z,101512.16
2023-05-05T22:46:59.259Z,101511.44
2023-05-05T22:49:27.716Z,101505.28
2023-05-05T22:51:57.220Z,101501.91
2023-05-05T22:54:24.983Z,101497.72
2023-05-05T22:56:52.725Z,101495.41
2023-05-05T22:59:20.412Z,101503.66
2023-05-05T23:01:48.083Z,101498.34
2023-05-05T23:04:15.798Z,101501.25
2023-05-05T23:06:44.874Z,101499.56
2023-05-05T23:09:14.026Z,101502.50
2023-05-05T23:11:41.699Z,101489.44
2023-05-05T23:14:09.443Z,101492.22
2023-05-05T23:16:37.122Z,101497.69
2023-05-05T23:19:04.768Z,101495.25
2023-05-05T23:21:36.273Z,101490.22
2023-05-05T23:24:10.411Z,101490.47
2023-05-05T23:26:39.468Z,101488.81
2023-05-05T23:29:07.302Z,101481.34
2023-05-05T23:31:35.256Z,101499.94
2023-05-05T23:34:03.479Z,101501.25
2023-05-05T23:36:31.200Z,101502.94
2023-05-05T23:38:58.880Z,101504.06
2023-05-05T23:41:26.660Z,101500.91
2023-05-05T23:43:55.688Z,101510.44
2023-05-05T23:46:23.986Z,101505.13
2023-05-05T23:48:52.028Z,101509.59
2023-05-05T23:51:19.716Z,101510.56
2023-05-05T23:53:47.444Z,101517.69
2023-05-05T23:56:15.254Z,101492.59
2023-05-05T23:58:42.927Z,101500.22
